Time;durP1;ratioP1;P1;durP2;ratioP2;P2;SDS_P1;SDS_P2;PMS_P1;PMS_P2;Temp;Humidity;BMP_temperature;BMP_pressure;BME280_temperature;BME280_humidity;BME280_pressure;Samples;Min_cycle;Max_cycle;Signal;HPM_P1;HPM_P2
2022/03/29 00:01:12;;;;;;;;;;;13.90;99.00;;;;;;4953020;29;19910;-90
2022/03/29 00:03:38;;;;;;;;;;;13.90;98.90;;;;;;4951856;29;19970;-90
2022/03/29 00:06:03;;;;;;;;;;;13.80;99.00;;;;;;4953059;29;19911;-90
2022/03/29 00:08:29;;;;;;;;;;;13.80;99.20;;;;;;4951614;29;20369;-90
2022/03/29 00:10:55;;;;;;;;;;;13.80;99.20;;;;;;4951771;29;19917;-90
2022/03/29 00:13:20;;;;;;;;;;;13.80;99.20;;;;;;4962687;28;19965;-90
2022/03/29 00:15:46;;;;;;;;;;;13.80;99.40;;;;;;4971017;28;20009;-90
2022/03/29 00:18:11;;;;;;;;;;;13.80;99.40;;;;;;4972145;28;19925;-90
2022/03/29 00:20:37;;;;;;;;;;;13.70;99.20;;;;;;4972261;28;20309;-90
2022/03/29 00:23:03;;;;;;;;;;;13.70;99.60;;;;;;4954756;28;19910;-90
2022/03/29 00:25:29;;;;;;;;;;;13.70;99.50;;;;;;4972090;28;20692;-90
2022/03/29 00:27:54;;;;;;;;;;;13.70;99.70;;;;;;4970570;28;19911;-91
2022/03/29 00:30:20;;;;;;;;;;;13.80;99.70;;;;;;4971054;28;19910;-90
2022/03/29 00:32:46;;;;;;;;;;;13.80;99.60;;;;;;4970545;28;19910;-90
2022/03/29 00:35:12;;;;;;;;;;;13.80;99.50;;;;;;4972120;28;19918;-90
2022/03/29 00:37:38;;;;;;;;;;;13.80;99.60;;;;;;4970660;28;19922;-90
2022/03/29 00:40:05;;;;;;;;;;;13.80;99.60;;;;;;4971836;28;19918;-90
2022/03/29 00:42:31;;;;;;;;;;;13.70;99.80;;;;;;4970604;28;20370;-90
2022/03/29 00:44:57;;;;;;;;;;;13.70;99.70;;;;;;4954074;28;19914;-90
2022/03/29 00:47:23;;;;;;;;;;;13.70;99.90;;;;;;4970472;28;20041;-91
2022/03/29 00:49:49;;;;;;;;;;;13.60;99.90;;;;;;4970468;28;19910;-90
2022/03/29 00:52:15;;;;;;;;;;;13.60;99.90;;;;;;4971712;28;19918;-90
2022/03/29 00:54:43;;;;;;;;;;;13.60;99.90;;;;;;4970335;28;20001;-90
2022/03/29 00:57:09;;;;;;;;;;;13.50;99.90;;;;;;4954283;28;20017;-90
2022/03/29 00:59:35;;;;;;;;;;;13.50;99.90;;;;;;4954240;28;19945;-90
2022/03/29 01:02:00;;;;;;;;;;;13.50;99.90;;;;;;4970399;28;19997;-90
2022/03/29 01:04:27;;;;;;;;;;;13.50;99.90;;;;;;4971993;28;19910;-90
2022/03/29 01:06:53;;;;;;;;;;;13.50;99.90;;;;;;4970261;28;20383;-89
2022/03/29 01:09:19;;;;;;;;;;;13.40;99.90;;;;;;4971522;28;20437;-90
2022/03/29 01:11:45;;;;;;;;;;;13.40;99.90;;;;;;4970201;28;19911;-90
2022/03/29 01:14:10;;;;;;;;;;;13.40;99.90;;;;;;4971303;28;19922;-91
2022/03/29 01:19:21;;;;;;;;;;;13.30;99.90;;;;;;4971589;28;20426;-90
2022/03/29 01:21:57;;;;;;;;;;;13.30;99.90;;;;;;4953986;28;19910;-89
2022/03/29 01:24:23;;;;;;;;;;;13.30;99.90;;;;;;4971453;28;19917;-90
2022/03/29 01:26:49;;;;;;;;;;;13.20;99.90;;;;;;4970070;28;19910;-90
2022/03/29 01:29:15;;;;;;;;;;;13.20;99.90;;;;;;4971364;28;19911;-90
2022/03/29 01:31:40;;;;;;;;;;;13.20;99.90;;;;;;4969784;28;19910;-90
2022/03/29 01:34:06;;;;;;;;;;;13.10;99.90;;;;;;4971231;28;19910;-90
2022/03/29 01:36:32;;;;;;;;;;;13.10;99.90;;;;;;4971239;28;19919;-90
2022/03/29 01:38:59;;;;;;;;;;;13.10;99.90;;;;;;4969963;28;19921;-90
2022/03/29 01:41:26;;;;;;;;;;;13.10;99.90;;;;;;4970238;28;19918;-90
2022/03/29 01:43:52;;;;;;;;;;;13.10;99.90;;;;;;4974937;28;19910;-89
2022/03/29 01:46:17;;;;;;;;;;;13.20;99.90;;;;;;4974480;28;19921;-89
2022/03/29 01:48:43;;;;;;;;;;;13.10;99.90;;;;;;4974889;28;19914;-90
2022/03/29 01:51:10;;;;;;;;;;;13.10;99.90;;;;;;4957116;28;19997;-90
2022/03/29 01:53:36;;;;;;;;;;;13.10;99.90;;;;;;4974578;28;20379;-90
2022/03/29 01:56:02;;;;;;;;;;;13.10;99.90;;;;;;4973199;28;19925;-90
2022/03/29 01:58:29;;;;;;;;;;;13.10;99.90;;;;;;4974697;28;19941;-90
2022/03/29 02:00:55;;;;;;;;;;;13.00;99.90;;;;;;4974696;28;20397;-90
2022/03/29 02:03:21;;;;;;;;;;;13.10;99.90;;;;;;4957307;28;20009;-90
2022/03/29 02:05:46;;;;;;;;;;;13.00;99.90;;;;;;4974570;28;20299;-90
2022/03/29 02:08:12;;;;;;;;;;;13.00;99.90;;;;;;4973122;28;19933;-89
2022/03/29 02:10:38;;;;;;;;;;;13.00;99.90;;;;;;4974293;28;20287;-90
2022/03/29 02:13:04;;;;;;;;;;;12.90;99.90;;;;;;4973981;28;19922;-90
2022/03/29 02:15:30;;;;;;;;;;;12.90;99.90;;;;;;4972699;28;19916;-90
2022/03/29 02:17:55;;;;;;;;;;;12.90;99.90;;;;;;4974099;28;19918;-90
2022/03/29 02:20:22;;;;;;;;;;;12.80;99.90;;;;;;4972811;28;19942;-90
2022/03/29 02:22:48;;;;;;;;;;;12.80;99.90;;;;;;4974220;28;19952;-90
2022/03/29 02:25:13;;;;;;;;;;;12.80;99.90;;;;;;4974390;28;20335;-89
2022/03/29 02:27:41;;;;;;;;;;;12.80;99.90;;;;;;4974322;28;19910;-90
2022/03/29 02:30:08;;;;;;;;;;;12.80;99.90;;;;;;4972756;28;19930;-89
2022/03/29 02:32:35;;;;;;;;;;;12.80;99.90;;;;;;4974025;28;19910;-90
2022/03/29 02:35:00;;;;;;;;;;;12.80;99.90;;;;;;4973668;28;19948;-90
2022/03/29 02:37:26;;;;;;;;;;;12.90;99.90;;;;;;4973751;28;19953;-90
2022/03/29 02:39:51;;;;;;;;;;;12.90;99.90;;;;;;4973739;28;19910;-90
2022/03/29 02:42:17;;;;;;;;;;;12.90;99.90;;;;;;4972515;28;19910;-89
2022/03/29 02:44:42;;;;;;;;;;;12.90;99.90;;;;;;4956254;28;20527;-90
2022/03/29 02:47:08;;;;;;;;;;;12.90;99.90;;;;;;4973669;28;20371;-91
2022/03/29 02:49:35;;;;;;;;;;;13.00;99.90;;;;;;4972711;28;19910;-90
2022/03/29 02:52:01;;;;;;;;;;;13.00;99.90;;;;;;4973457;28;19917;-90
2022/03/29 02:54:26;;;;;;;;;;;13.00;99.90;;;;;;4972481;28;19910;-90
2022/03/29 02:56:52;;;;;;;;;;;13.00;99.90;;;;;;4973276;28;20398;-90
2022/03/29 02:59:17;;;;;;;;;;;12.90;99.90;;;;;;4972094;28;19918;-90
2022/03/29 03:01:43;;;;;;;;;;;12.90;99.90;;;;;;4973387;28;20290;-89
2022/03/29 03:04:08;;;;;;;;;;;12.90;99.90;;;;;;4973504;28;19910;-89
2022/03/29 03:06:34;;;;;;;;;;;13.00;99.90;;;;;;4972317;28;19911;-90
2022/03/29 03:09:00;;;;;;;;;;;13.00;99.90;;;;;;4973475;28;19910;-89
2022/03/29 03:11:26;;;;;;;;;;;13.00;99.90;;;;;;4971888;28;19910;-89
2022/03/29 03:13:52;;;;;;;;;;;12.90;99.90;;;;;;4972748;28;20020;-89
2022/03/29 03:16:17;;;;;;;;;;;13.00;99.90;;;;;;4972853;28;20350;-90
2022/03/29 03:18:43;;;;;;;;;;;13.00;99.90;;;;;;4971549;28;20287;-89
2022/03/29 03:21:09;;;;;;;;;;;13.00;99.90;;;;;;4972934;28;20005;-90
2022/03/29 03:23:35;;;;;;;;;;;13.00;99.90;;;;;;4971764;28;19917;-89
2022/03/29 03:26:00;;;;;;;;;;;13.00;99.70;;;;;;4972929;28;19910;-90
2022/03/29 03:28:26;;;;;;;;;;;13.00;99.70;;;;;;4973429;28;19914;-89
2022/03/29 03:30:53;;;;;;;;;;;13.00;99.90;;;;;;4972733;28;19914;-89
2022/03/29 03:33:18;;;;;;;;;;;13.10;99.80;;;;;;4971300;28;19914;-89
2022/03/29 03:35:44;;;;;;;;;;;13.00;99.80;;;;;;4972514;28;19918;-90
2022/03/29 03:38:10;;;;;;;;;;;13.00;99.90;;;;;;4972701;28;19949;-89
2022/03/29 03:40:35;;;;;;;;;;;13.00;99.90;;;;;;4972743;28;19910;-90
2022/03/29 03:43:02;;;;;;;;;;;13.00;99.90;;;;;;4972633;28;19910;-89
2022/03/29 03:45:28;;;;;;;;;;;13.00;99.90;;;;;;4972274;28;19914;-90
2022/03/29 03:47:54;;;;;;;;;;;13.00;99.90;;;;;;4972511;28;19911;-90
2022/03/29 03:50:20;;;;;;;;;;;13.00;99.90;;;;;;4955352;28;20158;-89
2022/03/29 03:52:45;;;;;;;;;;;13.00;99.90;;;;;;4972605;28;20148;-89
2022/03/29 03:55:11;;;;;;;;;;;13.00;99.90;;;;;;4971164;28;19910;-90
2022/03/29 03:57:37;;;;;;;;;;;13.00;99.90;;;;;;4970972;28;20090;-89
2022/03/29 04:00:03;;;;;;;;;;;13.00;99.90;;;;;;4972134;28;19917;-90
2022/03/29 04:02:29;;;;;;;;;;;13.00;99.90;;;;;;4972230;28;20002;-89
2022/03/29 04:04:54;;;;;;;;;;;13.00;99.90;;;;;;4972091;28;20001;-90
2022/03/29 04:07:20;;;;;;;;;;;13.00;99.90;;;;;;4972280;28;19976;-89
2022/03/29 04:09:45;;;;;;;;;;;13.00;99.90;;;;;;4972239;28;20147;-90
2022/03/29 04:12:11;;;;;;;;;;;13.00;99.90;;;;;;4954604;28;19953;-90
2022/03/29 04:14:37;;;;;;;;;;;13.00;99.90;;;;;;4972023;28;19914;-89
2022/03/29 04:17:03;;;;;;;;;;;13.00;99.90;;;;;;4971701;28;19918;-89
2022/03/29 04:19:28;;;;;;;;;;;13.00;99.90;;;;;;4970517;28;19929;-89
2022/03/29 04:21:54;;;;;;;;;;;13.00;99.90;;;;;;4971962;28;19910;-90
2022/03/29 04:24:20;;;;;;;;;;;13.00;99.90;;;;;;4970809;28;20157;-89
2022/03/29 04:26:47;;;;;;;;;;;13.00;99.90;;;;;;4954643;28;19942;-90
2022/03/29 04:29:12;;;;;;;;;;;13.00;99.90;;;;;;4971742;28;19914;-91
2022/03/29 04:31:38;;;;;;;;;;;12.90;99.90;;;;;;4972286;28;19910;-90
2022/03/29 04:34:05;;;;;;;;;;;12.90;99.90;;;;;;4970548;28;19917;-90
2022/03/29 04:36:31;;;;;;;;;;;12.90;99.90;;;;;;4954441;28;20286;-89
2022/03/29 04:38:57;;;;;;;;;;;12.90;99.90;;;;;;4971687;28;19910;-89
2022/03/29 04:41:26;;;;;;;;;;;12.90;99.90;;;;;;4970313;28;19910;-91
2022/03/29 04:43:52;;;;;;;;;;;12.90;99.90;;;;;;4971555;28;19911;-89
2022/03/29 04:46:17;;;;;;;;;;;12.90;99.90;;;;;;4971399;28;19916;-89
2022/03/29 04:48:44;;;;;;;;;;;12.80;99.90;;;;;;4954362;28;19937;-89
2022/03/29 04:51:10;;;;;;;;;;;12.80;99.90;;;;;;4970397;28;19910;-89
2022/03/29 04:53:36;;;;;;;;;;;12.80;99.90;;;;;;4971641;28;19996;-90
2022/03/29 04:56:02;;;;;;;;;;;12.70;99.90;;;;;;4971548;28;19945;-89
2022/03/29 04:58:27;;;;;;;;;;;12.70;99.90;;;;;;4971366;28;20345;-89
2022/03/29 05:00:53;;;;;;;;;;;12.70;99.90;;;;;;4971366;28;19911;-89
2022/03/29 05:03:19;;;;;;;;;;;12.70;99.90;;;;;;4970341;28;19914;-89
2022/03/29 05:05:45;;;;;;;;;;;12.70;99.90;;;;;;4970103;28;19910;-89
2022/03/29 05:08:10;;;;;;;;;;;12.70;99.90;;;;;;4971617;28;19961;-90
2022/03/29 05:10:36;;;;;;;;;;;12.70;99.90;;;;;;4971661;28;19910;-89
2022/03/29 05:13:01;;;;;;;;;;;12.70;99.90;;;;;;4969904;28;19933;-89
2022/03/29 05:15:27;;;;;;;;;;;12.70;99.90;;;;;;4971542;28;19917;-89
2022/03/29 05:17:52;;;;;;;;;;;12.70;99.90;;;;;;4973572;28;19918;-89
2022/03/29 05:20:18;;;;;;;;;;;12.70;99.90;;;;;;4973914;28;19938;-90
2022/03/29 05:22:45;;;;;;;;;;;12.60;99.90;;;;;;4975127;28;20086;-89
2022/03/29 05:25:11;;;;;;;;;;;12.40;99.90;;;;;;4975411;28;19910;-90
2022/03/29 05:27:37;;;;;;;;;;;12.40;99.90;;;;;;4975218;28;19917;-90
2022/03/29 05:30:03;;;;;;;;;;;12.40;99.90;;;;;;4957652;28;19997;-89
2022/03/29 05:32:28;;;;;;;;;;;12.40;99.90;;;;;;4975042;28;19914;-89
2022/03/29 05:34:54;;;;;;;;;;;12.50;99.90;;;;;;4973717;28;19914;-89
2022/03/29 05:37:19;;;;;;;;;;;12.50;99.90;;;;;;4975133;28;19968;-89
2022/03/29 05:39:45;;;;;;;;;;;12.50;99.90;;;;;;4973429;28;19949;-90
2022/03/29 05:42:11;;;;;;;;;;;12.50;99.90;;;;;;4974767;28;20286;-89
2022/03/29 05:44:39;;;;;;;;;;;12.50;99.90;;;;;;4973377;28;20408;-90
2022/03/29 05:49:50;;;;;;;;;;;12.50;99.90;;;;;;4975006;28;20448;-89
2022/03/29 05:52:15;;;;;;;;;;;12.50;99.90;;;;;;4974799;28;19918;-89
2022/03/29 05:54:45;;;;;;;;;;;12.50;99.90;;;;;;4974655;28;20290;-89
2022/03/29 05:57:14;;;;;;;;;;;12.60;99.90;;;;;;4974447;28;19946;-89
2022/03/29 05:59:39;;;;;;;;;;;12.60;99.90;;;;;;4974594;28;19910;-89
2022/03/29 06:02:05;;;;;;;;;;;12.50;99.90;;;;;;4974286;28;19958;-89
2022/03/29 06:04:31;;;;;;;;;;;12.60;99.90;;;;;;4974437;28;19910;-93
2022/03/29 06:07:20;;;;;;;;;;;12.60;99.90;;;;;;4974783;28;19918;-93
2022/03/29 06:09:50;;;;;;;;;;;12.60;99.90;;;;;;4965406;28;19937;-95
2022/03/29 06:12:22;;;;;;;;;;;12.70;99.90;;;;;;4973900;28;19957;-95
2022/03/29 06:14:49;;;;;;;;;;;12.80;99.90;;;;;;4974022;28;19915;-93
2022/03/29 06:17:15;;;;;;;;;;;12.80;99.90;;;;;;4973864;28;20033;-95
2022/03/29 06:19:41;;;;;;;;;;;12.90;99.90;;;;;;4973867;28;20001;-93
2022/03/29 06:22:07;;;;;;;;;;;12.90;99.90;;;;;;4973896;28;19964;-94
2022/03/29 06:24:32;;;;;;;;;;;13.00;99.90;;;;;;4975333;28;19932;-95
2022/03/29 06:26:58;;;;;;;;;;;12.90;99.90;;;;;;4975474;28;19910;-95
2022/03/29 06:29:24;;;;;;;;;;;12.90;99.90;;;;;;4973035;28;20275;-95
2022/03/29 06:31:52;;;;;;;;;;;12.90;99.90;;;;;;4974481;28;19914;-93
2022/03/29 06:34:20;;;;;;;;;;;13.00;99.90;;;;;;4973682;28;19910;-94
2022/03/29 06:36:46;;;;;;;;;;;13.10;99.90;;;;;;4973275;28;20004;-94
2022/03/29 06:39:13;;;;;;;;;;;13.20;99.90;;;;;;4973603;28;20005;-94
2022/03/29 06:41:40;;;;;;;;;;;13.30;99.90;;;;;;4973921;28;19910;-91
2022/03/29 06:44:07;;;;;;;;;;;13.30;99.90;;;;;;4974861;28;19957;-91
2022/03/29 06:46:34;;;;;;;;;;;13.30;99.90;;;;;;4973247;28;20411;-91
2022/03/29 06:49:02;;;;;;;;;;;13.40;99.90;;;;;;4974621;28;19910;-93
2022/03/29 06:51:31;;;;;;;;;;;13.50;99.90;;;;;;4980471;28;19973;-93
2022/03/29 06:53:56;;;;;;;;;;;13.50;99.90;;;;;;4973040;28;19920;-94
2022/03/29 06:56:22;;;;;;;;;;;13.50;99.90;;;;;;4973241;28;19911;-92
2022/03/29 06:58:47;;;;;;;;;;;13.60;99.90;;;;;;4973267;28;19925;-91
2022/03/29 07:01:13;;;;;;;;;;;13.70;99.90;;;;;;4975074;28;19911;-93
2022/03/29 07:03:39;;;;;;;;;;;13.70;99.90;;;;;;4974567;28;19914;-94
2022/03/29 07:06:05;;;;;;;;;;;13.80;99.90;;;;;;4973335;28;19917;-93
2022/03/29 07:08:33;;;;;;;;;;;13.80;99.90;;;;;;4973409;28;20286;-92
2022/03/29 07:11:17;;;;;;;;;;;13.90;99.90;;;;;;4973054;28;19914;-93
2022/03/29 07:13:44;;;;;;;;;;;13.90;99.90;;;;;;4972748;28;19926;-93
2022/03/29 07:16:10;;;;;;;;;;;13.90;99.90;;;;;;4972883;28;20431;-94
2022/03/29 07:18:36;;;;;;;;;;;14.00;99.90;;;;;;4972643;28;19922;-91
2022/03/29 07:21:02;;;;;;;;;;;13.90;99.90;;;;;;4974058;28;19910;-94
2022/03/29 07:23:29;;;;;;;;;;;13.90;99.90;;;;;;4973029;28;20044;-90
2022/03/29 07:25:55;;;;;;;;;;;14.00;99.90;;;;;;4972958;28;19910;-91
2022/03/29 07:28:23;;;;;;;;;;;13.90;99.90;;;;;;4972187;28;19965;-91
2022/03/29 07:30:51;;;;;;;;;;;13.90;99.90;;;;;;4972781;28;19919;-92
2022/03/29 07:33:17;;;;;;;;;;;13.90;99.90;;;;;;4972531;28;19980;-91
2022/03/29 07:35:44;;;;;;;;;;;14.00;99.90;;;;;;4972280;28;20434;-94
2022/03/29 07:38:10;;;;;;;;;;;14.00;99.90;;;;;;4972708;28;19922;-91
2022/03/29 07:40:37;;;;;;;;;;;14.10;99.90;;;;;;4972034;28;19929;-91
2022/03/29 07:43:06;;;;;;;;;;;14.20;99.90;;;;;;4972052;28;19910;-93
2022/03/29 07:45:32;;;;;;;;;;;14.20;99.90;;;;;;4972589;28;20001;-91
2022/03/29 07:47:58;;;;;;;;;;;14.20;99.90;;;;;;4972287;28;19959;-91
2022/03/29 07:50:25;;;;;;;;;;;14.30;99.90;;;;;;4973372;28;19914;-92
2022/03/29 07:52:50;;;;;;;;;;;14.30;99.90;;;;;;4972213;28;19937;-92
2022/03/29 07:55:16;;;;;;;;;;;14.30;99.90;;;;;;4972882;28;19910;-92
2022/03/29 07:57:45;;;;;;;;;;;14.30;99.90;;;;;;4972638;28;19918;-91
2022/03/29 08:02:58;;;;;;;;;;;14.50;99.90;;;;;;4973383;28;19930;-93
2022/03/29 08:05:24;;;;;;;;;;;14.60;99.90;;;;;;4973525;28;19911;-92
2022/03/29 08:07:50;;;;;;;;;;;14.60;99.90;;;;;;4973233;28;19997;-90
2022/03/29 08:10:17;;;;;;;;;;;14.60;99.90;;;;;;4971812;28;19910;-91
2022/03/29 08:12:43;;;;;;;;;;;14.60;99.90;;;;;;4971680;28;19930;-91
2022/03/29 08:15:10;;;;;;;;;;;14.70;99.90;;;;;;4972259;28;19918;-91
2022/03/29 08:17:36;;;;;;;;;;;14.70;99.90;;;;;;4975343;28;19919;-91
2022/03/29 08:20:04;;;;;;;;;;;14.70;99.90;;;;;;4974619;28;19910;-94
2022/03/29 08:22:32;;;;;;;;;;;14.70;99.90;;;;;;4972221;28;19918;-92
2022/03/29 08:24:58;;;;;;;;;;;14.70;99.90;;;;;;4971905;28;19910;-91
2022/03/29 08:27:23;;;;;;;;;;;14.70;99.90;;;;;;4971697;28;19918;-92
2022/03/29 08:29:51;;;;;;;;;;;14.70;99.90;;;;;;4971818;28;19910;-95
2022/03/29 08:32:17;;;;;;;;;;;14.50;99.90;;;;;;4971770;28;20286;-92
2022/03/29 08:34:43;;;;;;;;;;;14.70;99.90;;;;;;4971993;28;20009;-92
2022/03/29 08:37:09;;;;;;;;;;;14.80;99.90;;;;;;4971929;28;20025;-93
2022/03/29 08:39:34;;;;;;;;;;;14.80;99.90;;;;;;4972045;28;19910;-92
2022/03/29 08:42:10;;;;;;;;;;;14.80;99.90;;;;;;4971816;28;19910;-91
2022/03/29 08:44:37;;;;;;;;;;;15.10;99.90;;;;;;4972319;28;20298;-91
2022/03/29 08:47:05;;;;;;;;;;;15.30;99.90;;;;;;4973968;28;19914;-93
2022/03/29 08:49:31;;;;;;;;;;;15.20;99.90;;;;;;4972825;28;19917;-95
2022/03/29 08:51:58;;;;;;;;;;;15.30;99.90;;;;;;4972873;28;19911;-94
2022/03/29 08:54:23;;;;;;;;;;;15.10;99.90;;;;;;4976648;28;19984;-95
2022/03/29 08:56:49;;;;;;;;;;;15.00;99.90;;;;;;4977158;28;19986;-91
2022/03/29 08:59:18;;;;;;;;;;;15.00;99.90;;;;;;4975963;28;20443;-95
2022/03/29 09:01:44;;;;;;;;;;;15.10;99.90;;;;;;4975344;28;19910;-91
2022/03/29 09:04:10;;;;;;;;;;;15.20;99.90;;;;;;4975230;28;19931;-91
2022/03/29 09:06:56;;;;;;;;;;;15.40;99.90;;;;;;4975130;28;19910;-91
2022/03/29 09:09:26;;;;;;;;;;;15.40;99.90;;;;;;4975284;28;20174;-91
2022/03/29 09:11:55;;;;;;;;;;;15.50;99.90;;;;;;4975064;28;19910;-92
2022/03/29 09:14:23;;;;;;;;;;;15.50;99.90;;;;;;4974555;28;19922;-91
2022/03/29 09:16:51;;;;;;;;;;;15.50;99.90;;;;;;4958810;28;19973;-91
2022/03/29 09:19:18;;;;;;;;;;;15.60;99.90;;;;;;4975057;28;19910;-91
2022/03/29 09:21:44;;;;;;;;;;;15.70;99.90;;;;;;4974944;28;19914;-95
2022/03/29 09:24:15;;;;;;;;;;;15.90;99.90;;;;;;4974695;28;19965;-91
2022/03/29 09:26:43;;;;;;;;;;;15.90;99.90;;;;;;4974747;28;19910;-92
2022/03/29 09:29:26;;;;;;;;;;;15.80;99.90;;;;;;4974418;28;19921;-92
2022/03/29 09:32:04;;;;;;;;;;;15.80;99.90;;;;;;4974845;28;19910;-93
2022/03/29 09:34:30;;;;;;;;;;;15.90;99.90;;;;;;4974633;28;19921;-92
2022/03/29 09:36:56;;;;;;;;;;;16.10;99.90;;;;;;4974504;28;19920;-92
2022/03/29 09:39:29;;;;;;;;;;;16.10;99.90;;;;;;4974525;28;20004;-91
2022/03/29 09:41:59;;;;;;;;;;;16.20;99.90;;;;;;4974554;28;19957;-91
2022/03/29 09:44:33;;;;;;;;;;;16.30;99.10;;;;;;4974393;28;19917;-91
2022/03/29 09:47:00;;;;;;;;;;;16.30;99.40;;;;;;4984807;28;19918;-92
2022/03/29 09:49:27;;;;;;;;;;;16.30;99.20;;;;;;4981594;28;20334;-95
2022/03/29 09:52:09;;;;;;;;;;;16.30;98.90;;;;;;4984533;28;19898;-92
2022/03/29 09:54:36;;;;;;;;;;;16.20;99.40;;;;;;4984675;28;19910;-92
2022/03/29 09:57:01;;;;;;;;;;;16.10;99.90;;;;;;4974624;28;19921;-96
2022/03/29 09:59:27;;;;;;;;;;;16.10;99.90;;;;;;4974104;28;19977;-91
2022/03/29 10:01:55;;;;;;;;;;;16.00;99.70;;;;;;4974387;28;19917;-91
2022/03/29 10:04:22;;;;;;;;;;;16.00;99.60;;;;;;4973815;28;20009;-91
2022/03/29 10:06:49;;;;;;;;;;;16.20;99.50;;;;;;4974336;28;19968;-90
2022/03/29 10:09:35;;;;;;;;;;;16.30;98.90;;;;;;4973905;28;20287;-91
2022/03/29 10:19:15;;;;;;;;;;;16.30;98.90;;;;;;4878028;29;20022;-96
2022/03/29 10:21:58;;;;;;;;;;;16.30;99.50;;;;;;4841264;29;19917;-94
2022/03/29 10:27:19;;;;;;;;;;;16.50;99.80;;;;;;4877621;29;19972;-93
2022/03/29 10:29:45;;;;;;;;;;;16.60;99.80;;;;;;4926352;29;19917;-93
2022/03/29 10:32:26;;;;;;;;;;;16.60;99.80;;;;;;4954573;29;19918;-93
2022/03/29 10:35:06;;;;;;;;;;;16.70;99.60;;;;;;4954682;29;20303;-92
2022/03/29 10:37:50;;;;;;;;;;;16.70;99.80;;;;;;4954539;29;19922;-92
2022/03/29 10:40:33;;;;;;;;;;;16.80;99.90;;;;;;4954756;29;20546;-93
2022/03/29 10:43:18;;;;;;;;;;;16.90;99.90;;;;;;4955617;29;19921;-93
2022/03/29 10:45:44;;;;;;;;;;;17.10;99.90;;;;;;4954345;29;20379;-93
2022/03/29 10:51:22;;;;;;;;;;;17.30;99.30;;;;;;4985506;23;19981;-94
2022/03/29 10:53:48;;;;;;;;;;;17.30;97.90;;;;;;4953785;29;19918;-92
2022/03/29 10:56:15;;;;;;;;;;;17.20;97.90;;;;;;4953840;29;19910;-94
2022/03/29 10:58:59;;;;;;;;;;;17.10;98.90;;;;;;4953157;29;19925;-93
2022/03/29 11:01:25;;;;;;;;;;;17.20;97.80;;;;;;4954246;29;19997;-93
2022/03/29 11:04:06;;;;;;;;;;;16.80;99.30;;;;;;4952223;29;20350;-91
2022/03/29 11:06:31;;;;;;;;;;;16.70;99.90;;;;;;4952718;29;20367;-92
2022/03/29 11:09:04;;;;;;;;;;;16.50;99.60;;;;;;4952881;29;19914;-94
2022/03/29 11:11:46;;;;;;;;;;;16.60;99.90;;;;;;4952718;29;19919;-93
2022/03/29 11:14:27;;;;;;;;;;;16.70;99.90;;;;;;4951919;28;19974;-92
2022/03/29 11:16:53;;;;;;;;;;;16.90;99.90;;;;;;4936415;29;19919;-91
2022/03/29 11:19:38;;;;;;;;;;;17.00;99.90;;;;;;4961959;29;19950;-90
2022/03/29 11:22:22;;;;;;;;;;;17.10;99.90;;;;;;4940757;29;19917;-94
2022/03/29 11:24:49;;;;;;;;;;;17.60;99.90;;;;;;4953848;29;19911;-93
2022/03/29 11:27:26;;;;;;;;;;;17.50;99.90;;;;;;4952294;29;20279;-92
2022/03/29 11:29:52;;;;;;;;;;;17.30;99.90;;;;;;4952563;29;19926;-93
2022/03/29 11:32:18;;;;;;;;;;;17.40;99.90;;;;;;4953477;29;20379;-92
2022/03/29 11:34:44;;;;;;;;;;;17.20;99.90;;;;;;4952224;29;19917;-92
2022/03/29 11:37:28;;;;;;;;;;;16.80;99.90;;;;;;4952400;29;19922;-95
2022/03/29 11:39:54;;;;;;;;;;;16.50;99.90;;;;;;4952192;29;19973;-92
2022/03/29 11:42:20;;;;;;;;;;;16.70;99.90;;;;;;4968359;28;19924;-91
2022/03/29 11:44:49;;;;;;;;;;;16.70;99.90;;;;;;4960462;29;19958;-92
2022/03/29 11:47:15;;;;;;;;;;;16.80;99.90;;;;;;4952245;29;20379;-91
2022/03/29 11:49:42;;;;;;;;;;;16.90;99.90;;;;;;4870955;29;2343028;-92
2022/03/29 11:52:14;;;;;;;;;;;17.00;99.90;;;;;;4953806;29;20287;-92
2022/03/29 11:54:45;;;;;;;;;;;17.10;99.90;;;;;;4952473;29;19973;-91
2022/03/29 11:57:18;;;;;;;;;;;17.10;99.90;;;;;;4952964;29;20133;-92
2022/03/29 11:59:44;;;;;;;;;;;16.70;99.90;;;;;;4952528;29;19962;-92
2022/03/29 12:02:09;;;;;;;;;;;16.60;99.90;;;;;;4952712;29;19961;-91
2022/03/29 12:04:38;;;;;;;;;;;16.50;99.90;;;;;;4952886;29;19911;-92
2022/03/29 12:07:05;;;;;;;;;;;16.20;99.90;;;;;;4952541;29;19972;-95
2022/03/29 12:09:31;;;;;;;;;;;16.10;99.90;;;;;;4952804;29;20376;-93
2022/03/29 12:11:59;;;;;;;;;;;15.80;99.90;;;;;;4952374;29;20394;-91
2022/03/29 12:14:25;;;;;;;;;;;15.70;99.90;;;;;;4952320;29;20122;-92
2022/03/29 12:17:09;;;;;;;;;;;15.90;99.90;;;;;;4952467;29;20106;-92
2022/03/29 12:19:36;;;;;;;;;;;16.10;99.90;;;;;;4953571;29;19934;-91
2022/03/29 12:22:03;;;;;;;;;;;16.30;99.90;;;;;;4952518;29;20379;-93
2022/03/29 12:24:36;;;;;;;;;;;16.80;99.90;;;;;;4952334;29;19917;-91
2022/03/29 12:27:06;;;;;;;;;;;17.00;99.90;;;;;;4952462;28;19911;-94
2022/03/29 12:29:47;;;;;;;;;;;17.40;99.90;;;;;;4951894;29;20298;-92
2022/03/29 12:32:13;;;;;;;;;;;17.60;99.90;;;;;;4951845;29;19917;-91
2022/03/29 12:34:39;;;;;;;;;;;17.40;99.90;;;;;;4951974;29;19918;-91
2022/03/29 12:37:09;;;;;;;;;;;17.50;99.90;;;;;;4952130;29;19914;-91
2022/03/29 12:39:38;;;;;;;;;;;17.70;99.90;;;;;;4952276;29;19997;-92
2022/03/29 12:42:04;;;;;;;;;;;18.10;99.90;;;;;;4953022;29;19916;-91
2022/03/29 12:44:39;;;;;;;;;;;18.30;99.90;;;;;;4952064;29;19922;-91
2022/03/29 12:47:05;;;;;;;;;;;18.50;99.90;;;;;;4953434;29;19954;-91
2022/03/29 12:49:32;;;;;;;;;;;18.50;99.90;;;;;;4935973;29;19917;-91
2022/03/29 12:52:00;;;;;;;;;;;18.60;99.90;;;;;;4960632;29;19910;-91
2022/03/29 12:54:33;;;;;;;;;;;18.80;99.90;;;;;;4957777;29;19910;-92
2022/03/29 12:56:59;;;;;;;;;;;18.90;99.90;;;;;;4951658;29;20013;-91
2022/03/29 12:59:32;;;;;;;;;;;18.70;99.90;;;;;;4951922;29;19997;-91
2022/03/29 13:01:59;;;;;;;;;;;18.50;99.90;;;;;;4951727;29;19915;-91
2022/03/29 13:04:34;;;;;;;;;;;18.30;99.90;;;;;;4952068;29;20066;-91
2022/03/29 13:07:00;;;;;;;;;;;18.50;99.90;;;;;;4953014;29;19974;-92
2022/03/29 13:09:25;;;;;;;;;;;18.70;99.90;;;;;;4952988;29;19911;-92
2022/03/29 13:12:08;;;;;;;;;;;18.60;99.90;;;;;;4951660;29;20326;-91
2022/03/29 13:14:38;;;;;;;;;;;18.60;99.90;;;;;;4951522;29;19910;-92
2022/03/29 13:17:04;;;;;;;;;;;18.70;99.90;;;;;;4951324;29;19962;-91
2022/03/29 13:19:29;;;;;;;;;;;18.70;99.90;;;;;;4953114;29;19942;-91
2022/03/29 13:22:01;;;;;;;;;;;19.00;99.90;;;;;;4952935;29;20398;-91
2022/03/29 13:24:37;;;;;;;;;;;19.10;99.90;;;;;;4951924;29;19913;-93
2022/03/29 13:27:03;;;;;;;;;;;18.50;99.90;;;;;;4951804;29;19910;-95
2022/03/29 13:29:31;;;;;;;;;;;18.40;99.90;;;;;;4951735;29;19910;-91
2022/03/29 13:31:57;;;;;;;;;;;18.30;99.90;;;;;;4965550;29;19917;-91
2022/03/29 13:34:23;;;;;;;;;;;18.30;99.90;;;;;;4961359;29;19910;-94
2022/03/29 13:36:48;;;;;;;;;;;18.50;99.90;;;;;;4951445;29;19918;-91
2022/03/29 13:39:15;;;;;;;;;;;18.70;99.90;;;;;;4954268;28;20343;-91
2022/03/29 13:41:41;;;;;;;;;;;18.40;99.90;;;;;;4956528;29;19911;-92
2022/03/29 13:44:06;;;;;;;;;;;18.40;99.90;;;;;;4955106;29;19965;-92
2022/03/29 13:46:32;;;;;;;;;;;18.40;99.90;;;;;;4955126;29;19958;-91
2022/03/29 13:49:00;;;;;;;;;;;18.50;99.90;;;;;;4956138;29;20001;-93
2022/03/29 13:51:26;;;;;;;;;;;18.50;99.90;;;;;;4956274;29;19923;-91
2022/03/29 13:53:52;;;;;;;;;;;18.70;99.90;;;;;;4956017;29;19918;-92
2022/03/29 13:56:17;;;;;;;;;;;18.90;99.90;;;;;;4956183;29;19965;-91
2022/03/29 13:58:43;;;;;;;;;;;18.60;99.90;;;;;;4954752;29;20009;-92
2022/03/29 14:01:09;;;;;;;;;;;18.40;99.90;;;;;;4954633;29;19917;-94
2022/03/29 14:03:35;;;;;;;;;;;18.60;99.90;;;;;;4954682;29;20375;-91
2022/03/29 14:06:01;;;;;;;;;;;18.50;99.90;;;;;;4954680;29;19969;-92
2022/03/29 14:08:27;;;;;;;;;;;18.60;99.90;;;;;;4954947;29;19954;-91
2022/03/29 14:10:53;;;;;;;;;;;18.70;99.90;;;;;;4954832;29;19923;-92
2022/03/29 14:13:21;;;;;;;;;;;18.80;99.90;;;;;;4954359;29;19914;-93
2022/03/29 14:15:48;;;;;;;;;;;18.40;99.90;;;;;;4954457;29;20546;-91
2022/03/29 14:18:14;;;;;;;;;;;18.40;99.90;;;;;;4954343;29;19926;-91
2022/03/29 14:20:40;;;;;;;;;;;18.00;99.90;;;;;;4954811;29;19922;-94
2022/03/29 14:23:07;;;;;;;;;;;17.70;99.90;;;;;;4955857;29;19910;-91
2022/03/29 14:25:36;;;;;;;;;;;18.00;99.90;;;;;;4954346;29;19917;-91
2022/03/29 14:28:11;;;;;;;;;;;18.40;99.90;;;;;;4965006;29;19934;-91
2022/03/29 14:30:38;;;;;;;;;;;18.60;99.80;;;;;;4954132;29;19954;-92
2022/03/29 14:33:04;;;;;;;;;;;18.40;99.90;;;;;;4938510;29;19910;-92
2022/03/29 14:35:30;;;;;;;;;;;18.20;99.90;;;;;;4953996;29;19915;-91
2022/03/29 14:37:56;;;;;;;;;;;18.80;99.90;;;;;;4953932;29;19918;-91
2022/03/29 14:40:21;;;;;;;;;;;19.30;99.10;;;;;;4954140;29;20005;-93